Time;durP1;ratioP1;P1;durP2;ratioP2;P2;SDS_P1;SDS_P2;PMS_P1;PMS_P2;Temp;Humidity;BMP_temperature;BMP_pressure;BME280_temperature;BME280_humidity;BME280_pressure;Samples;Min_cycle;Max_cycle;Signal;HPM_P1;HPM_P2
2021/09/06 00:00:46;;;;;;;0.63;0.63;;;14.20;99.90;;;;;;5130228;28;20167;-73
2021/09/06 00:03:12;;;;;;;0.20;0.20;;;14.20;99.90;;;;;;5111805;28;20670;-73
2021/09/06 00:05:38;;;;;;;1.63;0.70;;;14.20;99.90;;;;;;5130289;28;20158;-73
2021/09/06 00:08:04;;;;;;;1.10;1.10;;;14.30;99.90;;;;;;5129884;28;20226;-73
2021/09/06 00:10:34;;;;;;;0.32;0.32;;;14.20;99.90;;;;;;5130020;28;20159;-73
2021/09/06 00:13:02;;;;;;;0.35;0.10;;;14.20;99.90;;;;;;5111835;28;20170;-72
2021/09/06 00:15:28;;;;;;;0.13;0.13;;;14.20;99.90;;;;;;5129906;28;20158;-72
2021/09/06 00:17:54;;;;;;;0.75;0.32;;;14.10;99.90;;;;;;5129638;28;20205;-72
2021/09/06 00:20:21;;;;;;;1.00;1.00;;;14.10;99.90;;;;;;5129726;28;20174;-73
2021/09/06 00:22:47;;;;;;;12.05;1.30;;;14.00;99.90;;;;;;5111160;28;20177;-73
2021/09/06 00:25:13;;;;;;;0.85;0.85;;;14.00;99.90;;;;;;5083977;28;20339;-73
2021/09/06 00:27:39;;;;;;;0.73;0.73;;;13.90;99.90;;;;;;5070824;28;20227;-73
2021/09/06 00:30:07;;;;;;;2.42;2.00;;;13.80;99.90;;;;;;5070917;28;20635;-73
2021/09/06 00:32:33;;;;;;;7.53;1.08;;;13.80;99.90;;;;;;5070340;28;20168;-73
2021/09/06 00:34:58;;;;;;;0.30;0.30;;;13.80;99.90;;;;;;5070931;28;20229;-73
2021/09/06 00:37:24;;;;;;;2.92;0.65;;;13.80;99.90;;;;;;5070483;28;20172;-75
2021/09/06 00:39:50;;;;;;;1.17;0.90;;;13.70;99.90;;;;;;5088880;28;20160;-74
2021/09/06 00:42:16;;;;;;;5.03;1.90;;;13.80;99.90;;;;;;5070657;28;20172;-74
2021/09/06 00:44:42;;;;;;;1.45;0.40;;;13.70;99.90;;;;;;5088557;28;20664;-74
2021/09/06 00:47:08;;;;;;;2.63;1.20;;;13.80;99.90;;;;;;5088456;28;20188;-74
2021/09/06 00:49:34;;;;;;;0.80;0.75;;;13.80;99.90;;;;;;5088611;28;20176;-75
2021/09/06 00:52:00;;;;;;;1.33;0.95;;;13.70;99.90;;;;;;5088503;28;20264;-74
2021/09/06 00:54:27;;;;;;;0.32;0.32;;;13.70;99.90;;;;;;5070268;28;20251;-75
2021/09/06 00:59:21;;;;;;;1.55;1.33;;;13.70;99.90;;;;;;5108593;28;20176;-74
2021/09/06 01:01:47;;;;;;;0.50;0.50;;;13.70;99.90;;;;;;5108320;28;20166;-74
2021/09/06 01:04:12;;;;;;;4.60;1.27;;;13.60;99.90;;;;;;5090003;28;20289;-74
2021/09/06 01:06:38;;;;;;;0.75;0.75;;;13.70;99.90;;;;;;5090098;28;20232;-74
2021/09/06 01:09:05;;;;;;;2.40;1.33;;;13.60;99.90;;;;;;5090127;28;20169;-74
2021/09/06 01:11:30;;;;;;;2.92;1.73;;;13.60;99.90;;;;;;5108438;28;20163;-74
2021/09/06 01:13:57;;;;;;;0.30;0.20;;;13.50;99.90;;;;;;5108478;28;20159;-74
2021/09/06 01:16:23;;;;;;;2.25;1.45;;;13.50;99.90;;;;;;5090388;28;20181;-74
2021/09/06 01:18:51;;;;;;;0.40;0.40;;;13.50;99.90;;;;;;5090314;28;20167;-73
2021/09/06 01:21:17;;;;;;;4.75;1.98;;;13.50;99.90;;;;;;5090270;28;20171;-75
2021/09/06 01:23:43;;;;;;;0.20;0.20;;;13.40;99.90;;;;;;5109145;28;20170;-73
2021/09/06 01:26:09;;;;;;;0.32;0.32;;;13.30;99.90;;;;;;5128798;28;20182;-73
2021/09/06 01:28:36;;;;;;;0.82;0.80;;;13.20;99.90;;;;;;5128813;28;20159;-74
2021/09/06 01:31:03;;;;;;;0.85;0.85;;;13.20;99.90;;;;;;5128800;28;20155;-74
2021/09/06 01:33:29;;;;;;;1.10;1.10;;;13.20;99.90;;;;;;5110281;28;20166;-74
2021/09/06 01:35:55;;;;;;;0.40;0.40;;;13.10;99.90;;;;;;5109738;28;20202;-73
2021/09/06 01:38:21;;;;;;;0.95;0.90;;;13.00;99.90;;;;;;5110091;28;20227;-73
2021/09/06 01:40:47;;;;;;;1.13;0.50;;;13.00;99.90;;;;;;5110073;28;20178;-73
2021/09/06 01:43:13;;;;;;;0.95;0.95;;;13.10;99.90;;;;;;5110046;28;20175;-74
2021/09/06 01:45:39;;;;;;;0.45;0.30;;;13.10;99.90;;;;;;5128335;28;20198;-73
2021/09/06 01:48:05;;;;;;;1.75;1.55;;;13.20;99.90;;;;;;5128240;28;20675;-73
2021/09/06 01:50:31;;;;;;;1.02;1.00;;;13.30;99.90;;;;;;5114532;28;20183;-73
2021/09/06 01:52:57;;;;;;;0.30;0.30;;;13.40;99.90;;;;;;5103364;28;20218;-73
2021/09/06 01:55:23;;;;;;;9.30;1.13;;;13.60;99.90;;;;;;5087567;28;20184;-73
2021/09/06 01:57:49;;;;;;;1.13;1.10;;;13.50;99.90;;;;;;5107726;28;20171;-73
2021/09/06 02:00:15;;;;;;;2.22;0.38;;;13.60;99.90;;;;;;5107925;28;20156;-73
2021/09/06 02:02:41;;;;;;;0.75;0.75;;;13.70;99.90;;;;;;5107877;28;20219;-73
2021/09/06 02:05:07;;;;;;;2.75;1.08;;;13.70;99.90;;;;;;5107729;28;20187;-73
2021/09/06 02:07:33;;;;;;;2.50;1.92;;;13.70;99.90;;;;;;5108029;28;20631;-73
2021/09/06 02:09:59;;;;;;;1.45;1.45;;;13.70;99.90;;;;;;5107999;28;20194;-73
2021/09/06 02:12:25;;;;;;;0.80;0.75;;;13.70;99.90;;;;;;5089925;28;20168;-74
2021/09/06 02:14:51;;;;;;;0.30;0.30;;;13.70;99.90;;;;;;5091126;28;20222;-72
2021/09/06 02:17:17;;;;;;;0.68;0.52;;;13.60;99.90;;;;;;5112048;28;20193;-73
2021/09/06 02:19:43;;;;;;;0.90;0.90;;;13.70;99.90;;;;;;5093690;28;20194;-73
2021/09/06 02:22:09;;;;;;;0.13;0.13;;;13.70;99.90;;;;;;5111583;28;20155;-73
2021/09/06 02:24:35;;;;;;;1.00;0.88;;;13.70;99.90;;;;;;5111732;28;20170;-73
2021/09/06 02:27:00;;;;;;;0.95;0.85;;;13.50;99.90;;;;;;5111332;28;20262;-73
2021/09/06 02:29:26;;;;;;;0.43;0.43;;;13.40;99.90;;;;;;5093171;28;20193;-73
2021/09/06 02:31:52;;;;;;;0.80;0.80;;;13.40;99.90;;;;;;5093100;28;20171;-73
2021/09/06 02:34:18;;;;;;;0.30;0.13;;;13.30;99.90;;;;;;5111293;28;20223;-72
2021/09/06 02:36:44;;;;;;;3.70;1.63;;;13.30;99.90;;;;;;5092785;28;20190;-72
2021/09/06 02:39:10;;;;;;;0.70;0.35;;;13.20;99.90;;;;;;5110938;28;20227;-72
2021/09/06 02:41:36;;;;;;;4.57;1.90;;;13.10;99.90;;;;;;5110910;28;20168;-72
2021/09/06 02:44:02;;;;;;;1.88;0.90;;;13.10;99.90;;;;;;5101466;28;20270;-74
2021/09/06 02:46:28;;;;;;;1.38;1.05;;;13.10;99.90;;;;;;5072042;28;20199;-72
2021/09/06 02:48:54;;;;;;;2.65;0.95;;;13.10;99.90;;;;;;5069418;28;20317;-74
2021/09/06 02:51:20;;;;;;;0.88;0.52;;;13.00;99.90;;;;;;5090226;28;20172;-73
2021/09/06 02:53:46;;;;;;;0.35;0.35;;;13.00;99.90;;;;;;5101347;28;20576;-73
2021/09/06 02:56:11;;;;;;;1.23;0.45;;;13.00;99.90;;;;;;5099242;28;20195;-72
2021/09/06 02:58:37;;;;;;;1.17;0.95;;;13.00;99.90;;;;;;5104600;28;20201;-73
2021/09/06 03:01:03;;;;;;;1.17;1.08;;;13.00;99.90;;;;;;5093434;28;20228;-73
2021/09/06 03:03:30;;;;;;;1.05;1.05;;;13.00;99.90;;;;;;5105264;28;20180;-71
2021/09/06 03:05:56;;;;;;;1.00;0.47;;;12.90;99.90;;;;;;5098691;28;20171;-73
2021/09/06 03:08:22;;;;;;;0.30;0.30;;;12.90;99.90;;;;;;5097371;28;20184;-74
2021/09/06 03:10:48;;;;;;;0.75;0.75;;;12.90;99.90;;;;;;5087865;28;20168;-73
2021/09/06 03:13:14;;;;;;;0.13;0.13;;;12.90;99.90;;;;;;5075244;28;20163;-73
2021/09/06 03:15:40;;;;;;;0.63;0.63;;;13.00;99.90;;;;;;5103384;28;20242;-73
2021/09/06 03:18:06;;;;;;;0.60;0.60;;;13.00;99.90;;;;;;5099791;28;20202;-73
2021/09/06 03:20:31;;;;;;;1.40;1.17;;;13.00;99.90;;;;;;5096017;28;20263;-73
2021/09/06 03:22:58;;;;;;;0.47;0.47;;;13.00;99.90;;;;;;5088017;28;20167;-73
2021/09/06 03:25:23;;;;;;;0.40;0.40;;;12.90;99.90;;;;;;5093320;28;20205;-73
2021/09/06 03:27:49;;;;;;;0.80;0.80;;;12.90;99.90;;;;;;5101609;28;20200;-73
2021/09/06 03:30:15;;;;;;;3.10;1.05;;;12.80;99.90;;;;;;5082812;28;20197;-72
2021/09/06 03:32:41;;;;;;;0.93;0.77;;;12.70;99.90;;;;;;5076339;28;20225;-72
2021/09/06 03:35:08;;;;;;;0.70;0.45;;;12.60;99.90;;;;;;5087936;28;20193;-71
2021/09/06 03:37:33;;;;;;;1.40;1.13;;;12.60;99.90;;;;;;5095190;28;20197;-72
2021/09/06 03:39:59;;;;;;;0.30;0.30;;;12.50;99.90;;;;;;5100365;28;20627;-72
2021/09/06 03:42:25;;;;;;;1.70;1.60;;;12.50;99.90;;;;;;5084143;28;20174;-71
2021/09/06 03:44:51;;;;;;;2.05;1.95;;;12.50;99.90;;;;;;5075147;28;20202;-72
2021/09/06 03:47:17;;;;;;;0.10;0.10;;;12.50;99.90;;;;;;5087626;28;20203;-71
2021/09/06 03:49:43;;;;;;;7.53;1.08;;;12.50;99.90;;;;;;5078094;28;20202;-71
2021/09/06 03:52:08;;;;;;;1.08;1.08;;;12.60;99.90;;;;;;5098870;28;20163;-72
2021/09/06 03:54:34;;;;;;;1.83;1.73;;;12.60;99.90;;;;;;5088775;28;20280;-71
2021/09/06 03:57:00;;;;;;;0.93;0.93;;;12.70;99.90;;;;;;5126181;28;20191;-72
2021/09/06 03:59:26;;;;;;;0.65;0.65;;;12.70;99.90;;;;;;5113892;28;20166;-72
2021/09/06 04:01:52;;;;;;;0.30;0.30;;;12.70;99.90;;;;;;5102994;28;20175;-72
2021/09/06 04:04:18;;;;;;;1.48;0.85;;;12.80;99.90;;;;;;5102764;28;20179;-72
2021/09/06 04:06:45;;;;;;;1.25;1.25;;;12.70;99.90;;;;;;5113869;28;20195;-71
2021/09/06 04:09:11;;;;;;;3.50;1.55;;;12.60;99.90;;;;;;5092793;28;20209;-73
2021/09/06 04:11:37;;;;;;;0.77;0.57;;;12.60;99.90;;;;;;5123126;28;20187;-73
2021/09/06 04:14:03;;;;;;;3.25;1.23;;;12.50;99.90;;;;;;5118787;28;20163;-72
2021/09/06 04:16:28;;;;;;;1.20;0.60;;;12.60;99.90;;;;;;5097536;28;20180;-73
2021/09/06 04:18:54;;;;;;;0.73;0.68;;;12.50;99.90;;;;;;5122774;28;20196;-72
2021/09/06 04:21:20;;;;;;;9.13;1.58;;;12.50;99.90;;;;;;5123165;28;20238;-72
2021/09/06 04:23:46;;;;;;;1.05;0.95;;;12.40;99.90;;;;;;5121541;28;20163;-72
2021/09/06 04:26:12;;;;;;;0.52;0.52;;;12.30;99.90;;;;;;5118214;28;20225;-72
2021/09/06 04:28:38;;;;;;;0.28;0.28;;;12.30;99.90;;;;;;5123164;28;20194;-72
2021/09/06 04:31:04;;;;;;;0.68;0.68;;;12.30;99.90;;;;;;5111864;28;20231;-72
2021/09/06 04:33:30;;;;;;;4.93;3.00;;;12.30;99.90;;;;;;5123799;28;20628;-72
2021/09/06 04:35:56;;;;;;;1.05;0.95;;;12.30;99.90;;;;;;5090300;28;20289;-72
2021/09/06 04:38:22;;;;;;;2.63;1.15;;;12.30;99.90;;;;;;5102016;28;20194;-73
2021/09/06 04:40:48;;;;;;;0.75;0.75;;;12.40;99.90;;;;;;5112866;28;20294;-72
2021/09/06 04:43:14;;;;;;;0.25;0.25;;;12.40;99.90;;;;;;5125270;28;20189;-73
2021/09/06 04:45:40;;;;;;;0.63;0.63;;;12.40;99.90;;;;;;5115259;28;20186;-72
2021/09/06 04:48:06;;;;;;;0.50;0.50;;;12.40;99.90;;;;;;5100370;28;20217;-72
2021/09/06 04:50:33;;;;;;;0.50;0.50;;;12.50;99.90;;;;;;5122075;28;20246;-72
2021/09/06 04:52:59;;;;;;;1.35;0.80;;;12.50;99.90;;;;;;5111308;28;20599;-72
2021/09/06 04:55:25;;;;;;;0.90;0.38;;;12.60;99.90;;;;;;5123825;28;20178;-72
2021/09/06 04:57:51;;;;;;;2.20;1.17;;;12.70;99.90;;;;;;5116182;28;20257;-72
2021/09/06 05:00:17;;;;;;;0.88;0.73;;;12.80;99.90;;;;;;5098276;28;20293;-71
2021/09/06 05:02:43;;;;;;;30.73;1.85;;;13.00;99.90;;;;;;5123583;28;20177;-71
2021/09/06 05:05:09;;;;;;;1.02;0.93;;;13.10;99.90;;;;;;5093009;28;20171;-71
2021/09/06 05:07:35;;;;;;;0.30;0.30;;;13.20;99.90;;;;;;5122324;28;20687;-73
2021/09/06 05:10:01;;;;;;;1.08;0.50;;;13.50;99.90;;;;;;5089945;28;20232;-71
2021/09/06 05:12:27;;;;;;;2.25;2.05;;;13.70;99.90;;;;;;5108320;28;20156;-72
2021/09/06 05:14:53;;;;;;;1.08;0.82;;;14.20;99.90;;;;;;5108334;28;20152;-75
2021/09/06 05:17:18;;;;;;;8.18;1.23;;;14.30;99.90;;;;;;5108213;28;20216;-75
2021/09/06 05:19:44;;;;;;;3.28;3.08;;;14.20;99.90;;;;;;5108412;28;20167;-74
2021/09/06 05:22:10;;;;;;;0.52;0.52;;;14.20;99.90;;;;;;5108359;28;20152;-75
2021/09/06 05:24:37;;;;;;;1.83;1.38;;;14.80;99.90;;;;;;5108413;28;20156;-75
2021/09/06 05:27:03;;;;;;;0.98;0.98;;;15.00;99.90;;;;;;5108203;28;20187;-75
2021/09/06 05:29:29;;;;;;;1.67;1.58;;;15.30;99.90;;;;;;5090080;28;20178;-75
2021/09/06 05:31:55;;;;;;;0.40;0.40;;;15.50;99.90;;;;;;5108233;28;20152;-75
2021/09/06 05:34:21;;;;;;;0.73;0.73;;;16.00;99.90;;;;;;5089232;28;20184;-74
2021/09/06 05:36:47;;;;;;;1.75;1.65;;;16.00;99.90;;;;;;5088089;28;20171;-74
2021/09/06 05:39:13;;;;;;;9.32;1.85;;;16.10;99.90;;;;;;5106937;28;20163;-74
2021/09/06 05:41:38;;;;;;;1.48;1.42;;;15.90;99.90;;;;;;5107162;28;20194;-75
2021/09/06 05:44:07;;;;;;;1.85;0.80;;;16.20;99.90;;;;;;5088948;28;20195;-75
2021/09/06 05:46:34;;;;;;;1.77;0.77;;;16.70;99.90;;;;;;5107339;28;20207;-74
2021/09/06 05:48:59;;;;;;;1.15;1.15;;;16.80;99.90;;;;;;5109485;28;20156;-74
2021/09/06 05:51:26;;;;;;;2.05;0.70;;;16.80;99.90;;;;;;5111857;28;20163;-74
2021/09/06 05:53:53;;;;;;;2.55;2.10;;;17.40;99.90;;;;;;5111547;28;20218;-74
2021/09/06 05:56:20;;;;;;;1.15;1.05;;;17.60;99.90;;;;;;5093522;28;20164;-74
2021/09/06 05:58:47;;;;;;;1.27;1.23;;;17.50;99.90;;;;;;5111984;28;20185;-74
2021/09/06 06:01:14;;;;;;;0.85;0.85;;;17.10;99.90;;;;;;5111933;28;20159;-74
2021/09/06 06:03:40;;;;;;;2.40;2.20;;;17.00;99.90;;;;;;5093278;28;20573;-74
2021/09/06 06:06:06;;;;;;;2.22;1.40;;;16.90;99.90;;;;;;5111713;28;20187;-74
2021/09/06 06:08:32;;;;;;;0.98;0.98;;;16.60;99.90;;;;;;5093205;28;20167;-74
2021/09/06 06:10:58;;;;;;;0.88;0.88;;;16.50;99.90;;;;;;5111753;28;20164;-74
2021/09/06 06:13:24;;;;;;;3.25;0.95;;;17.40;99.90;;;;;;5111476;28;20156;-76
2021/09/06 06:15:49;;;;;;;2.53;1.98;;;17.70;99.90;;;;;;5092985;28;20336;-73
2021/09/06 06:18:15;;;;;;;3.78;2.00;;;17.40;99.90;;;;;;5111335;28;20167;-73
2021/09/06 06:20:41;;;;;;;3.50;2.53;;;17.10;99.90;;;;;;5111486;28;20167;-74
2021/09/06 06:23:07;;;;;;;3.10;1.80;;;16.90;99.90;;;;;;5093311;28;20232;-74
2021/09/06 06:25:33;;;;;;;3.50;1.25;;;16.90;99.90;;;;;;5092976;28;20267;-75
2021/09/06 06:27:59;;;;;;;1.25;1.10;;;16.90;99.90;;;;;;5092498;28;20246;-75
2021/09/06 06:30:26;;;;;;;1.45;1.35;;;16.90;99.90;;;;;;5110993;28;20165;-76
2021/09/06 06:32:52;;;;;;;1.02;0.93;;;17.00;99.90;;;;;;5111078;28;20148;-76
2021/09/06 06:35:18;;;;;;;0.32;0.32;;;17.20;99.90;;;;;;5110893;28;20212;-75
2021/09/06 06:37:44;;;;;;;0.63;0.63;;;17.50;99.90;;;;;;5092650;28;20174;-77
2021/09/06 06:40:11;;;;;;;0.75;0.40;;;18.20;99.90;;;;;;5092473;28;20168;-76
2021/09/06 06:42:37;;;;;;;4.60;1.65;;;19.00;99.90;;;;;;5092535;28;20164;-77
2021/09/06 06:45:03;;;;;;;2.08;1.88;;;19.10;99.90;;;;;;5107558;28;20202;-76
2021/09/06 06:47:29;;;;;;;4.00;1.17;;;20.20;99.90;;;;;;5107465;28;20286;-75
2021/09/06 06:49:55;;;;;;;0.98;0.95;;;20.60;99.90;;;;;;5108146;28;20175;-75
2021/09/06 06:52:21;;;;;;;1.80;1.70;;;20.90;99.90;;;;;;5089718;28;20187;-75
2021/09/06 06:54:47;;;;;;;1.42;0.75;;;20.10;99.90;;;;;;5107945;28;20339;-75
2021/09/06 06:57:13;;;;;;;7.15;1.42;;;20.80;99.90;;;;;;5089549;28;20163;-75
2021/09/06 06:59:39;;;;;;;0.70;0.70;;;21.40;99.90;;;;;;5090687;28;20296;-75
2021/09/06 07:02:05;;;;;;;2.10;0.73;;;21.40;99.90;;;;;;5091578;28;20163;-75
2021/09/06 07:04:31;;;;;;;1.50;1.40;;;21.70;99.90;;;;;;5110339;28;20225;-74
2021/09/06 07:06:57;;;;;;;0.95;0.95;;;22.50;99.90;;;;;;5092042;28;20265;-76
2021/09/06 07:09:22;;;;;;;2.78;0.95;;;21.10;99.90;;;;;;5110242;28;20156;-74
2021/09/06 07:11:48;;;;;;;1.13;0.65;;;20.40;99.90;;;;;;5091766;28;20191;-74
2021/09/06 07:14:14;;;;;;;1.27;1.17;;;19.80;99.90;;;;;;5110023;28;20162;-74
2021/09/06 07:16:40;;;;;;;1.63;1.17;;;21.10;99.90;;;;;;5110453;28;20163;-74
2021/09/06 07:19:06;;;;;;;2.83;1.38;;;22.40;99.90;;;;;;5110988;28;20186;-74
2021/09/06 07:21:32;;;;;;;1.15;0.93;;;22.40;99.90;;;;;;5111093;28;20187;-74
2021/09/06 07:23:58;;;;;;;0.65;0.60;;;23.50;99.90;;;;;;5110587;28;20166;-74
2021/09/06 07:26:24;;;;;;;1.45;1.00;;;24.60;99.90;;;;;;5109956;28;20191;-74
2021/09/06 07:28:50;;;;;;;1.75;1.15;;;24.40;99.90;;;;;;5110186;28;20165;-74
2021/09/06 07:31:16;;;;;;;2.90;1.45;;;24.20;99.90;;;;;;5091761;28;20194;-74
2021/09/06 07:33:42;;;;;;;1.25;1.15;;;24.70;99.90;;;;;;5091920;28;20217;-75
2021/09/06 07:36:08;;;;;;;1.98;0.75;;;23.20;99.90;;;;;;5109968;28;20151;-74
2021/09/06 07:38:33;;;;;;;1.63;1.25;;;23.90;99.90;;;;;;5109962;28;20155;-74
2021/09/06 07:40:59;;;;;;;1.20;0.75;;;23.90;99.90;;;;;;5091587;28;20623;-74
2021/09/06 07:43:26;;;;;;;1.10;1.00;;;22.00;99.90;;;;;;5091568;28;20159;-74
2021/09/06 07:45:51;;;;;;;1.00;0.98;;;23.10;99.90;;;;;;5109920;28;20159;-74
2021/09/06 07:48:17;;;;;;;1.42;1.13;;;23.60;99.90;;;;;;5091396;28;20282;-75
2021/09/06 07:50:45;;;;;;;0.98;0.88;;;23.60;99.90;;;;;;5091483;28;20166;-75
2021/09/06 07:53:11;;;;;;;1.10;1.00;;;23.20;99.90;;;;;;5084644;28;20242;-75
2021/09/06 07:55:38;;;;;;;0.77;0.70;;;22.70;99.90;;;;;;5071353;28;20589;-75
2021/09/06 07:58:04;;;;;;;0.47;0.47;;;22.30;99.90;;;;;;5089382;28;20227;-75
2021/09/06 08:00:30;;;;;;;0.40;0.40;;;23.80;99.90;;;;;;5089345;28;20514;-75
2021/09/06 08:02:56;;;;;;;1.40;1.08;;;23.60;99.90;;;;;;5089361;28;20202;-75
2021/09/06 08:05:25;;;;;;;1.17;1.08;;;24.20;99.90;;;;;;5089245;28;20213;-75
2021/09/06 08:07:51;;;;;;;1.85;1.15;;;24.40;99.90;;;;;;5071227;28;20663;-75
2021/09/06 08:10:18;;;;;;;0.52;0.52;;;23.80;99.90;;;;;;5089116;28;20187;-75
2021/09/06 08:12:44;;;;;;;1.35;1.20;;;24.30;99.90;;;;;;5088886;28;20213;-75
2021/09/06 08:15:11;;;;;;;1.17;0.93;;;24.30;99.90;;;;;;5089119;28;20578;-75
2021/09/06 08:17:38;;;;;;;0.60;0.60;;;24.00;99.90;;;;;;5088875;28;20164;-75
2021/09/06 08:20:07;;;;;;;2.67;1.48;;;23.50;99.90;;;;;;5070738;28;20167;-74
2021/09/06 08:22:34;;;;;;;0.60;0.60;;;22.80;99.90;;;;;;5088783;28;20213;-74
2021/09/06 08:25:02;;;;;;;1.73;1.25;;;23.20;99.90;;;;;;5070872;28;20225;-75
2021/09/06 08:27:27;;;;;;;1.17;1.08;;;23.40;99.90;;;;;;5070732;28;20245;-75
2021/09/06 08:29:53;;;;;;;1.65;1.13;;;23.60;99.90;;;;;;5088810;28;20211;-75
2021/09/06 08:32:20;;;;;;;1.00;0.90;;;24.00;99.90;;;;;;5070677;28;20202;-75
2021/09/06 08:34:48;;;;;;;4.35;1.02;;;23.20;99.90;;;;;;5088729;28;20166;-74
2021/09/06 08:37:15;;;;;;;0.80;0.80;;;24.00;99.90;;;;;;5088848;28;20163;-75
2021/09/06 08:39:41;;;;;;;0.82;0.75;;;23.20;99.90;;;;;;5088734;28;20160;-75
2021/09/06 08:42:08;;;;;;;0.47;0.35;;;23.90;99.90;;;;;;5088714;28;20191;-75
2021/09/06 08:44:35;;;;;;;1.52;1.35;;;24.80;99.90;;;;;;5088623;28;20176;-74
2021/09/06 08:47:02;;;;;;;1.45;1.05;;;25.60;99.90;;;;;;5088507;28;20222;-75
2021/09/06 08:49:29;;;;;;;1.00;1.00;;;26.30;99.90;;;;;;5069048;28;20198;-74
2021/09/06 08:51:56;;;;;;;0.65;0.65;;;27.00;99.90;;;;;;5069871;28;20213;-75
2021/09/06 08:54:22;;;;;;;2.47;1.48;;;26.40;99.90;;;;;;5104199;28;20643;-74
2021/09/06 08:56:49;;;;;;;4.32;2.55;;;26.10;99.90;;;;;;5108535;28;20182;-74
2021/09/06 08:59:18;;;;;;;2.17;1.40;;;25.10;99.90;;;;;;5090026;28;20188;-74
2021/09/06 09:01:53;;;;;;;1.77;1.55;;;25.60;99.90;;;;;;5108142;28;20202;-75
2021/09/06 09:04:20;;;;;;;0.80;0.80;;;25.00;99.90;;;;;;5090310;28;20216;-72
2021/09/06 09:06:58;;;;;;;4.07;1.75;;;23.60;99.90;;;;;;5108271;28;20212;-72
2021/09/06 09:09:36;;;;;;;1.23;1.13;;;24.60;99.90;;;;;;5090115;28;20226;-72
2021/09/06 09:12:13;;;;;;;1.85;1.33;;;24.50;99.90;;;;;;5108457;28;20269;-73
2021/09/06 09:15:00;;;;;;;1.05;0.95;;;25.10;99.90;;;;;;5108248;28;20158;-72
2021/09/06 09:17:27;;;;;;;1.10;0.82;;;24.90;99.90;;;;;;5090066;28;20231;-72
2021/09/06 09:19:58;;;;;;;1.80;1.02;;;24.30;99.90;;;;;;5090144;28;20198;-74
2021/09/06 09:22:36;;;;;;;1.63;1.30;;;23.50;99.90;;;;;;5089930;28;20198;-74
2021/09/06 09:25:08;;;;;;;1.25;1.15;;;24.00;99.90;;;;;;5093398;28;20170;-75
2021/09/06 09:27:44;;;;;;;1.27;1.17;;;25.20;99.90;;;;;;5112410;28;20250;-74
2021/09/06 09:30:32;;;;;;;0.10;0.10;;;25.00;99.90;;;;;;5094150;28;20166;-77
2021/09/06 09:33:14;;;;;;;1.60;1.33;;;25.70;99.90;;;;;;5111656;28;20202;-74
2021/09/06 09:35:41;;;;;;;4.75;4.30;;;26.10;99.90;;;;;;5112615;28;20234;-74
2021/09/06 09:38:09;;;;;;;0.70;0.45;;;25.90;99.90;;;;;;5094255;28;20171;-74
2021/09/06 09:40:40;;;;;;;11.68;1.50;;;25.50;99.90;;;;;;5112487;28;20159;-75
2021/09/06 09:43:07;;;;;;;3.63;1.20;;;26.40;99.90;;;;;;5112035;28;20190;-75
2021/09/06 09:45:34;;;;;;;0.95;0.90;;;26.80;99.90;;;;;;5111854;28;20174;-74
2021/09/06 09:48:02;;;;;;;1.20;0.88;;;26.80;99.90;;;;;;5093587;28;20195;-74
2021/09/06 09:50:31;;;;;;;1.80;0.80;;;26.40;99.90;;;;;;5112560;28;20635;-74
2021/09/06 09:52:58;;;;;;;0.95;0.95;;;26.70;99.90;;;;;;5112014;28;20228;-74
2021/09/06 09:55:25;;;;;;;1.45;1.35;;;26.30;99.90;;;;;;5092727;28;20280;-73
2021/09/06 09:57:52;;;;;;;2.25;1.33;;;25.00;99.90;;;;;;5097317;28;20198;-73
2021/09/06 10:00:19;;;;;;;1.98;1.17;;;25.50;99.90;;;;;;5104249;28;20298;-73
2021/09/06 10:02:51;;;;;;;1.55;1.10;;;25.60;99.90;;;;;;5109435;28;20174;-74
2021/09/06 10:05:22;;;;;;;1.98;1.38;;;26.80;99.90;;;;;;5121456;28;20195;-74
2021/09/06 10:07:49;;;;;;;2.08;1.58;;;26.70;99.90;;;;;;5090930;28;20713;-74
2021/09/06 10:10:20;;;;;;;5.88;1.45;;;26.60;99.90;;;;;;5111308;28;20163;-74
2021/09/06 10:13:07;;;;;;;1.63;1.00;;;26.10;99.90;;;;;;5110779;28;20182;-73
2021/09/06 10:15:35;;;;;;;1.23;1.13;;;25.70;99.90;;;;;;5111333;28;20242;-73
2021/09/06 10:18:21;;;;;;;0.43;0.43;;;26.10;99.90;;;;;;5111329;28;20220;-73
2021/09/06 10:20:48;;;;;;;1.42;1.33;;;27.30;99.90;;;;;;5111817;28;20235;-75
2021/09/06 10:23:15;;;;;;;0.93;0.65;;;27.40;99.90;;;;;;5111245;28;20178;-74
2021/09/06 10:25:43;;;;;;;1.48;1.38;;;27.40;99.90;;;;;;5110787;28;20162;-75
2021/09/06 10:28:13;;;;;;;1.30;0.80;;;26.90;99.90;;;;;;5115837;28;20261;-74
2021/09/06 10:30:43;;;;;;;1.77;1.40;;;26.30;99.90;;;;;;5111317;28;20179;-74
2021/09/06 10:33:22;;;;;;;1.17;0.85;;;26.50;99.90;;;;;;5117447;28;20197;-73
2021/09/06 10:35:48;;;;;;;6.70;5.35;;;27.50;99.90;;;;;;5108284;28;20201;-73
2021/09/06 10:38:16;;;;;;;4.38;2.67;;;27.50;99.90;;;;;;5111261;28;20175;-74
2021/09/06 10:40:45;;;;;;;8.10;5.43;;;28.50;99.90;;;;;;5111334;28;20165;-73
2021/09/06 10:43:16;;;;;;;2.15;1.85;;;28.80;99.90;;;;;;5110803;28;20224;-74
2021/09/06 10:45:45;;;;;;;0.65;0.65;;;29.00;99.90;;;;;;5111122;28;20195;-73
2021/09/06 10:48:24;;;;;;;0.98;0.82;;;29.20;99.50;;;;;;5111019;28;20187;-74
2021/09/06 10:50:51;;;;;;;4.70;1.30;;;28.90;99.60;;;;;;5104768;28;20168;-73
2021/09/06 10:53:21;;;;;;;2.15;1.35;;;28.90;99.30;;;;;;5090180;28;20288;-73
2021/09/06 10:55:55;;;;;;;1.02;0.85;;;28.90;99.90;;;;;;5105593;28;20202;-73
2021/09/06 10:58:23;;;;;;;0.40;0.40;;;28.80;98.80;;;;;;5114633;28;20195;-73
2021/09/06 11:00:57;;;;;;;4.47;1.23;;;29.20;99.30;;;;;;5109316;28;20204;-73
2021/09/06 11:03:36;;;;;;;1.48;0.98;;;29.60;98.70;;;;;;5092203;28;20201;-73
2021/09/06 11:06:03;;;;;;;1.00;0.93;;;28.70;99.50;;;;;;5110180;28;20194;-73
2021/09/06 11:08:36;;;;;;;2.58;1.08;;;28.90;99.90;;;;;;5106979;28;20254;-74
2021/09/06 11:11:05;;;;;;;2.47;1.55;;;29.50;98.40;;;;;;5109841;28;20262;-74
2021/09/06 11:13:45;;;;;;;1.00;0.93;;;28.50;98.50;;;;;;5110172;28;20199;-73
2021/09/06 11:16:14;;;;;;;0.93;0.90;;;27.90;99.90;;;;;;5106351;28;20201;-74
2021/09/06 11:18:46;;;;;;;0.88;0.88;;;27.20;99.90;;;;;;5111939;28;20197;-73
2021/09/06 11:21:13;;;;;;;1.35;0.95;;;26.80;99.90;;;;;;5130621;28;20150;-73
2021/09/06 11:23:43;;;;;;;0.93;0.93;;;28.10;99.30;;;;;;5130543;28;20157;-73
2021/09/06 11:26:24;;;;;;;0.85;0.85;;;28.20;99.70;;;;;;5111424;28;20250;-73
2021/09/06 11:28:50;;;;;;;1.08;0.98;;;29.10;97.40;;;;;;5111882;28;20522;-75
2021/09/06 11:31:21;;;;;;;1.05;0.57;;;29.70;97.40;;;;;;5111971;28;20154;-74
2021/09/06 11:33:58;;;;;;;0.30;0.30;;;30.60;99.40;;;;;;5112380;28;20170;-73
2021/09/06 11:36:25;;;;;;;2.75;1.20;;;30.10;97.80;;;;;;5100646;28;20198;-73
2021/09/06 11:38:50;;;;;;;3.40;1.48;;;29.90;98.00;;;;;;5112188;28;20167;-75
2021/09/06 11:41:17;;;;;;;0.90;0.90;;;29.30;97.00;;;;;;5129835;28;20181;-74
2021/09/06 11:43:43;;;;;;;3.10;1.65;;;29.20;97.40;;;;;;5130495;28;20158;-74
2021/09/06 11:46:10;;;;;;;2.28;1.63;;;28.90;98.50;;;;;;5113983;28;20242;-74
2021/09/06 11:48:44;;;;;;;2.15;0.80;;;28.90;98.30;;;;;;5130032;28;20180;-75
2021/09/06 11:51:12;;;;;;;1.85;0.82;;;27.70;99.90;;;;;;5111322;28;20206;-75
2021/09/06 11:53:38;;;;;;;6.30;1.45;;;27.90;99.90;;;;;;5105726;28;20291;-74
2021/09/06 11:56:12;;;;;;;0.93;0.93;;;29.00;99.70;;;;;;5104527;28;20194;-74
2021/09/06 11:58:43;;;;;;;0.50;0.50;;;29.40;99.80;;;;;;5092077;28;20198;-74
2021/09/06 12:01:13;;;;;;;3.03;1.23;;;29.70;97.40;;;;;;5071291;28;20176;-73
2021/09/06 12:03:41;;;;;;;1.63;1.02;;;29.50;98.90;;;;;;5105873;28;20201;-74
2021/09/06 12:06:12;;;;;;;0.70;0.55;;;29.50;97.00;;;;;;5090975;28;20174;-73
2021/09/06 12:08:49;;;;;;;1.95;1.20;;;29.40;97.80;;;;;;5108772;28;20254;-73
2021/09/06 12:11:15;;;;;;;5.88;2.22;;;29.90;97.50;;;;;;5109533;28;20155;-75
2021/09/06 12:13:41;;;;;;;4.47;1.33;;;29.80;96.00;;;;;;5091110;28;20197;-73
2021/09/06 12:16:09;;;;;;;0.60;0.47;;;29.00;97.00;;;;;;5099277;28;20254;-73
2021/09/06 12:18:39;;;;;;;0.73;0.73;;;26.70;99.90;;;;;;5107874;28;20200;-73
2021/09/06 12:21:09;;;;;;;3.00;1.02;;;24.50;99.90;;;;;;5089260;28;20156;-74
2021/09/06 12:23:44;;;;;;;1.27;1.17;;;24.10;99.90;;;;;;5122708;28;20208;-73
2021/09/06 12:26:12;;;;;;;3.00;1.35;;;24.20;99.90;;;;;;5097290;28;20217;-73
2021/09/06 12:28:57;;;;;;;1.08;1.08;;;24.00;99.90;;;;;;5107893;28;20198;-73
2021/09/06 12:31:24;;;;;;;2.17;2.00;;;24.00;99.90;;;;;;5109869;28;20203;-73
2021/09/06 12:33:51;;;;;;;0.77;0.68;;;24.00;99.90;;;;;;5129466;28;20162;-73
2021/09/06 12:36:20;;;;;;;5.30;0.63;;;23.90;99.90;;;;;;5113417;28;20200;-73
2021/09/06 12:38:45;;;;;;;5.65;0.93;;;24.10;99.90;;;;;;5123601;28;20162;-74
2021/09/06 12:41:11;;;;;;;0.70;0.50;;;23.90;99.90;;;;;;5089494;28;20199;-73
2021/09/06 12:43:37;;;;;;;1.33;0.65;;;23.80;99.90;;;;;;5089941;28;20198;-74
2021/09/06 12:46:05;;;;;;;3.28;2.55;;;23.60;99.90;;;;;;5090327;28;20643;-75
2021/09/06 12:48:31;;;;;;;1.48;1.15;;;23.60;99.90;;;;;;5096223;28;20430;-74